createdAt,value
2022-08-29T00:02:18.928Z,11.48
2022-08-29T00:09:01.574Z,11.77
2022-08-29T00:15:44.988Z,14.10
2022-08-29T00:22:27.989Z,11.88
2022-08-29T00:29:10.396Z,10.65
2022-08-29T00:35:52.786Z,12.25
2022-08-29T00:42:35.723Z,13.70
2022-08-29T00:49:30.222Z,13.13
2022-08-29T00:56:16.347Z,12.60
2022-08-29T01:02:58.730Z,12.18
2022-08-29T01:09:46.004Z,12.18
2022-08-29T01:16:29.766Z,11.57
2022-08-29T01:23:46.655Z,13.55
2022-08-29T01:30:29.355Z,14.48
2022-08-29T01:37:14.982Z,12.18
2022-08-29T01:43:57.463Z,13.05
2022-08-29T01:50:39.825Z,12.60
2022-08-29T01:57:22.443Z,13.18
2022-08-29T02:04:05.942Z,12.32
2022-08-29T02:10:48.995Z,15.38
2022-08-29T02:17:31.358Z,14.05
2022-08-29T02:24:25.400Z,13.63
2022-08-29T02:31:08.928Z,13.13
2022-08-29T02:37:51.507Z,14.65
2022-08-29T02:44:34.007Z,15.13
2022-08-29T02:51:26.053Z,14.23
2022-08-29T02:58:08.914Z,15.05
2022-08-29T03:04:51.388Z,15.98
2022-08-29T03:11:33.751Z,16.85
2022-08-29T03:18:16.892Z,16.25
2022-08-29T03:25:02.843Z,13.82
2022-08-29T03:31:45.274Z,14.60
2022-08-29T03:38:27.747Z,15.20
2022-08-29T03:45:13.944Z,14.30
2022-08-29T03:51:56.344Z,14.02
2022-08-29T03:58:39.101Z,15.77
2022-08-29T04:05:21.962Z,13.60
2022-08-29T04:12:04.567Z,16.67
2022-08-29T04:18:47.307Z,14.88
2022-08-29T04:25:37.116Z,16.85
2022-08-29T04:32:20.162Z,16.42
2022-08-29T04:39:03.427Z,13.45
2022-08-29T04:45:45.778Z,13.02
2022-08-29T04:52:28.728Z,14.23
2022-08-29T04:59:11.119Z,14.25
2022-08-29T05:06:09.587Z,12.80
2022-08-29T05:12:51.973Z,14.05
2022-08-29T05:19:37.256Z,15.48
2022-08-29T05:26:29.856Z,12.95
2022-08-29T05:33:12.182Z,12.95
2022-08-29T05:39:56.112Z,16.35
2022-08-29T05:46:38.541Z,13.50
2022-08-29T05:53:21.214Z,12.48
2022-08-29T06:00:05.992Z,10.93
2022-08-29T06:06:54.515Z,11.82
2022-08-29T06:13:36.875Z,7.55
2022-08-29T06:20:19.268Z,7.13
2022-08-29T06:27:02.316Z,8.43
2022-08-29T06:33:44.743Z,8.88
2022-08-29T06:40:27.270Z,8.20
2022-08-29T06:47:09.736Z,8.25
2022-08-29T06:53:52.459Z,10.05
2022-08-29T07:00:34.820Z,7.30
2022-08-29T07:07:17.219Z,10.30
2022-08-29T07:14:04.448Z,10.15
2022-08-29T07:20:50.103Z,7.75
2022-08-29T07:27:32.771Z,10.02
2022-08-29T07:34:15.576Z,8.68
2022-08-29T07:41:04.313Z,7.50
2022-08-29T07:47:49.672Z,10.90
2022-08-29T07:54:32.720Z,7.72
2022-08-29T08:01:21.534Z,8.30
2022-08-29T08:08:08.786Z,8.48
2022-08-29T08:14:57.247Z,10.25
2022-08-29T08:21:49.579Z,9.63
2022-08-29T08:28:32.977Z,9.70
2022-08-29T08:35:16.222Z,10.35
2022-08-29T08:42:11.674Z,9.27
2022-08-29T08:48:56.919Z,8.23
2022-08-29T08:55:46.391Z,8.10
2022-08-29T09:02:36.475Z,9.15
2022-08-29T09:09:27.908Z,8.88
2022-08-29T09:16:25.107Z,9.38
2022-08-29T09:23:25.034Z,9.77
2022-08-29T09:30:15.266Z,11.32
2022-08-29T09:36:57.634Z,9.38
2022-08-29T09:43:39.938Z,7.85
2022-08-29T09:50:25.170Z,8.57
2022-08-29T09:57:23.117Z,10.10
2022-08-29T10:04:07.274Z,8.45
2022-08-29T10:10:59.592Z,7.28
2022-08-29T10:18:27.490Z,6.25
2022-08-29T10:25:19.814Z,7.45
2022-08-29T10:32:14.266Z,7.95
2022-08-29T10:39:15.276Z,5.65
2022-08-29T10:46:08.660Z,6.25
2022-08-29T10:53:01.303Z,6.38
2022-08-29T11:00:04.851Z,8.07
2022-08-29T11:06:58.436Z,6.38
2022-08-29T11:13:46.459Z,9.35
2022-08-29T11:20:33.257Z,5.60
2022-08-29T11:28:03.548Z,5.60
2022-08-29T11:35:01.204Z,7.75
2022-08-29T11:41:46.971Z,5.95
2022-08-29T11:48:41.815Z,6.05
2022-08-29T11:55:31.080Z,6.10
2022-08-29T12:02:31.606Z,4.93
2022-08-29T12:09:14.523Z,6.47
2022-08-29T12:16:09.123Z,5.53
2022-08-29T12:23:00.607Z,6.13
2022-08-29T12:29:44.971Z,5.03
2022-08-29T12:36:52.407Z,6.38
2022-08-29T12:43:42.658Z,5.38
2022-08-29T12:50:37.383Z,7.75
2022-08-29T12:57:35.625Z,5.50
2022-08-29T13:04:21.779Z,7.82
2022-08-29T13:11:11.131Z,5.22
2022-08-29T13:17:54.106Z,4.63
2022-08-29T13:24:36.449Z,6.28
2022-08-29T13:31:19.054Z,5.13
2022-08-29T13:38:19.519Z,6.72
2022-08-29T13:45:07.094Z,5.60
2022-08-29T13:51:50.015Z,8.15
2022-08-29T13:58:32.424Z,6.53
2022-08-29T14:05:14.841Z,4.63
2022-08-29T14:11:57.267Z,4.90
2022-08-29T14:18:40.429Z,5.32
2022-08-29T14:25:23.184Z,4.25
2022-08-29T14:32:05.843Z,6.20
2022-08-29T14:38:48.237Z,7.53
2022-08-29T14:45:31.665Z,7.07
2022-08-29T14:52:15.063Z,5.35
2022-08-29T14:58:58.399Z,4.05
2022-08-29T15:05:42.678Z,6.07
2022-08-29T15:12:28.936Z,4.28
2022-08-29T15:26:13.819Z,4.00
2022-08-29T15:32:56.239Z,5.88
2022-08-29T15:39:39.518Z,3.95
2022-08-29T15:46:21.965Z,4.07
2022-08-29T15:53:09.552Z,4.65
2022-08-29T15:59:58.134Z,5.63
2022-08-29T16:06:41.367Z,5.85
2022-08-29T16:13:23.733Z,4.75
2022-08-29T16:20:13.584Z,6.35
2022-08-29T16:26:56.357Z,5.13
2022-08-29T16:33:39.468Z,4.88
2022-08-29T16:40:22.351Z,4.28
2022-08-29T16:47:05.401Z,5.75
2022-08-29T16:53:48.149Z,7.47
2022-08-29T17:00:30.976Z,6.80
2022-08-29T17:07:13.375Z,5.55
2022-08-29T17:13:55.977Z,4.35
2022-08-29T17:20:38.838Z,6.25
2022-08-29T17:27:22.265Z,5.38
2022-08-29T17:34:07.557Z,5.78
2022-08-29T17:40:51.324Z,4.68
2022-08-29T17:47:34.030Z,5.85
2022-08-29T17:54:18.273Z,5.00
2022-08-29T18:01:00.706Z,7.70
2022-08-29T18:07:43.515Z,4.80
2022-08-29T18:14:26.991Z,5.95
2022-08-29T18:21:09.574Z,5.93
2022-08-29T18:27:51.990Z,8.02
2022-08-29T18:34:34.363Z,7.68
2022-08-29T18:41:16.865Z,7.88
2022-08-29T18:48:00.320Z,7.20
2022-08-29T18:54:42.953Z,7.20
2022-08-29T19:01:28.538Z,5.55
2022-08-29T19:08:11.688Z,5.55
2022-08-29T19:14:54.109Z,9.60
2022-08-29T19:21:36.454Z,6.38
2022-08-29T19:28:20.777Z,8.05
2022-08-29T19:35:03.382Z,5.78
2022-08-29T19:41:45.779Z,5.80
2022-08-29T19:48:28.516Z,6.72
2022-08-29T19:55:12.798Z,6.50
2022-08-29T20:01:55.436Z,11.07
2022-08-29T20:08:43.637Z,6.85
2022-08-29T20:15:30.299Z,6.05
2022-08-29T20:22:14.524Z,5.53
2022-08-29T20:29:04.345Z,5.63
2022-08-29T20:36:05.194Z,8.57
2022-08-29T20:42:47.598Z,7.65
2022-08-29T20:49:30.063Z,7.75
2022-08-29T20:56:12.796Z,4.68
2022-08-29T21:03:14.017Z,8.23
2022-08-29T21:09:56.473Z,7.25
2022-08-29T21:16:38.842Z,8.30
2022-08-29T21:23:22.869Z,6.50
2022-08-29T21:30:05.698Z,7.85
2022-08-29T21:36:48.270Z,6.70
2022-08-29T21:43:31.356Z,7.75
2022-08-29T21:50:13.707Z,8.57
2022-08-29T21:56:56.056Z,7.72
2022-08-29T22:03:39.559Z,7.82
2022-08-29T22:10:29.943Z,10.65
2022-08-29T22:17:13.114Z,9.25
2022-08-29T22:23:56.062Z,8.25
2022-08-29T22:30:39.108Z,11.25
2022-08-29T22:37:21.496Z,8.52
2022-08-29T22:51:23.058Z,8.85
2022-08-29T22:58:07.086Z,7.95
2022-08-29T23:04:51.144Z,12.10
2022-08-29T23:11:35.199Z,7.78
2022-08-29T23:18:17.655Z,11.75
2022-08-29T23:25:00.217Z,10.40
2022-08-29T23:31:42.651Z,8.50
2022-08-29T23:38:25.086Z,9.00
2022-08-29T23:45:08.161Z,8.18
2022-08-29T23:51:50.699Z,8.63
2022-08-29T23:58:33.084Z,7.93
